createdAt,value
2023-01-25T00:00:16.118Z,23.01
2023-01-25T00:02:42.478Z,22.97
2023-01-25T00:05:09.232Z,22.95
2023-01-25T00:07:35.673Z,22.94
2023-01-25T00:10:01.992Z,22.92
2023-01-25T00:12:28.351Z,22.92
2023-01-25T00:14:54.691Z,22.86
2023-01-25T00:17:21.013Z,22.82
2023-01-25T00:19:47.458Z,22.82
2023-01-25T00:22:13.794Z,22.83
2023-01-25T00:24:40.112Z,22.82
2023-01-25T00:27:06.427Z,22.81
2023-01-25T00:29:32.735Z,22.79
2023-01-25T00:32:02.813Z,22.80
2023-01-25T00:34:29.826Z,22.79
2023-01-25T00:36:57.153Z,22.77
2023-01-25T00:39:23.566Z,22.76
2023-01-25T00:41:49.884Z,22.75
2023-01-25T00:44:16.210Z,22.70
2023-01-25T00:46:42.537Z,22.71
2023-01-25T00:49:16.151Z,22.68
2023-01-25T00:51:42.472Z,22.66
2023-01-25T00:54:08.813Z,22.61
2023-01-25T00:56:35.131Z,22.59
2023-01-25T00:59:01.444Z,22.56
2023-01-25T01:01:27.820Z,22.53
2023-01-25T01:03:54.203Z,22.51
2023-01-25T01:06:20.556Z,22.49
2023-01-25T01:08:46.966Z,22.48
2023-01-25T01:11:13.291Z,22.49
2023-01-25T01:13:39.652Z,22.47
2023-01-25T01:16:08.315Z,22.44
2023-01-25T01:18:35.221Z,22.42
2023-01-25T01:21:01.555Z,22.40
2023-01-25T01:23:28.052Z,22.39
2023-01-25T01:25:54.371Z,22.35
2023-01-25T01:28:20.820Z,22.34
2023-01-25T01:30:47.170Z,22.33
2023-01-25T01:33:13.547Z,22.31
2023-01-25T01:35:39.928Z,22.31
2023-01-25T01:38:06.577Z,22.29
2023-01-25T01:40:32.987Z,22.26
2023-01-25T01:43:06.704Z,22.26
2023-01-25T01:45:48.432Z,22.22
2023-01-25T01:48:32.907Z,22.20
2023-01-25T01:51:00.530Z,22.19
2023-01-25T01:53:26.872Z,22.15
2023-01-25T01:55:53.195Z,22.12
2023-01-25T01:58:20.139Z,22.08
2023-01-25T02:00:46.691Z,22.08
2023-01-25T02:03:13.576Z,22.09
2023-01-25T02:05:41.412Z,22.10
2023-01-25T02:08:07.872Z,22.10
2023-01-25T02:10:34.197Z,22.08
2023-01-25T02:13:00.551Z,22.08
2023-01-25T02:15:33.616Z,22.03
2023-01-25T02:17:59.985Z,22.05
2023-01-25T02:20:39.557Z,22.01
2023-01-25T02:23:20.951Z,22.00
2023-01-25T02:25:47.262Z,21.99
2023-01-25T02:28:14.756Z,21.95
2023-01-25T02:30:41.568Z,21.94
2023-01-25T02:33:07.905Z,21.92
2023-01-25T02:35:37.041Z,21.92
2023-01-25T02:38:03.466Z,21.90
2023-01-25T02:40:30.087Z,21.87
2023-01-25T02:42:56.394Z,21.86
2023-01-25T02:45:23.022Z,21.83
2023-01-25T02:47:50.442Z,21.80
2023-01-25T02:50:16.861Z,21.78
2023-01-25T02:52:43.192Z,21.74
2023-01-25T02:55:10.027Z,21.73
2023-01-25T02:57:36.512Z,21.70
2023-01-25T03:00:03.416Z,21.66
2023-01-25T03:02:29.797Z,21.65
2023-01-25T03:04:56.165Z,21.69
2023-01-25T03:07:22.479Z,21.72
2023-01-25T03:09:48.819Z,21.74
2023-01-25T03:12:15.129Z,21.74
2023-01-25T03:14:41.454Z,21.74
2023-01-25T03:17:07.802Z,21.72
2023-01-25T03:19:34.124Z,21.72
2023-01-25T03:22:00.435Z,21.72
2023-01-25T03:24:26.831Z,21.71
2023-01-25T03:27:11.787Z,21.68
2023-01-25T03:29:38.355Z,21.66
2023-01-25T03:32:04.974Z,21.65
2023-01-25T03:34:31.420Z,21.65
2023-01-25T03:36:57.794Z,21.63
2023-01-25T03:39:24.159Z,21.62
2023-01-25T03:41:50.487Z,21.60
2023-01-25T03:44:16.813Z,21.59
2023-01-25T03:46:43.180Z,21.59
2023-01-25T03:49:09.576Z,21.54
2023-01-25T03:51:35.938Z,21.55
2023-01-25T03:54:02.290Z,21.54
2023-01-25T03:56:28.645Z,21.51
2023-01-25T03:58:55.055Z,21.48
2023-01-25T04:01:21.723Z,21.47
2023-01-25T04:03:48.060Z,21.46
2023-01-25T04:06:14.376Z,21.42
2023-01-25T04:08:40.931Z,21.41
2023-01-25T04:11:07.679Z,21.40
2023-01-25T04:13:36.919Z,21.40
2023-01-25T04:16:03.667Z,21.43
2023-01-25T04:18:29.997Z,21.44
2023-01-25T04:20:56.505Z,21.43
2023-01-25T04:23:23.299Z,21.43
2023-01-25T04:25:53.362Z,21.41
2023-01-25T04:28:19.675Z,21.42
2023-01-25T04:30:46.011Z,21.39
2023-01-25T04:33:12.399Z,21.37
2023-01-25T04:35:38.715Z,21.35
2023-01-25T04:38:05.032Z,21.33
2023-01-25T04:40:31.350Z,21.32
2023-01-25T04:42:57.941Z,21.32
2023-01-25T04:45:25.871Z,21.30
2023-01-25T04:47:58.857Z,21.30
2023-01-25T04:50:25.211Z,21.29
2023-01-25T04:52:51.515Z,21.28
2023-01-25T04:55:17.847Z,21.25
2023-01-25T04:57:44.201Z,21.23
2023-01-25T05:00:10.920Z,21.22
2023-01-25T05:02:37.366Z,21.22
2023-01-25T05:05:03.761Z,21.19
2023-01-25T05:07:30.092Z,21.18
2023-01-25T05:09:56.432Z,21.15
2023-01-25T05:12:22.751Z,21.15
2023-01-25T05:14:49.063Z,21.11
2023-01-25T05:17:15.695Z,21.09
2023-01-25T05:19:42.019Z,21.08
2023-01-25T05:22:11.513Z,21.06
2023-01-25T05:24:41.481Z,21.05
2023-01-25T05:27:08.529Z,21.06
2023-01-25T05:29:41.049Z,21.10
2023-01-25T05:32:08.244Z,21.10
2023-01-25T05:34:34.674Z,21.11
2023-01-25T05:37:01.058Z,21.12
2023-01-25T05:39:27.388Z,21.09
2023-01-25T05:41:53.708Z,21.07
2023-01-25T05:44:20.048Z,21.04
2023-01-25T05:46:46.376Z,21.03
2023-01-25T05:49:12.697Z,21.01
2023-01-25T05:51:39.108Z,21.02
2023-01-25T05:54:05.890Z,21.05
2023-01-25T05:56:32.517Z,21.05
2023-01-25T05:58:59.130Z,21.05
2023-01-25T06:01:25.458Z,21.05
2023-01-25T06:03:51.868Z,21.04
2023-01-25T06:06:18.269Z,21.02
2023-01-25T06:08:44.603Z,21.04
2023-01-25T06:11:11.370Z,21.03
2023-01-25T06:13:37.677Z,21.00
2023-01-25T06:16:04.739Z,20.98
2023-01-25T06:18:31.555Z,20.97
2023-01-25T06:20:57.940Z,20.95
2023-01-25T06:23:24.274Z,20.95
2023-01-25T06:25:50.599Z,20.90
2023-01-25T06:28:16.910Z,20.86
2023-01-25T06:30:43.259Z,20.85
2023-01-25T06:33:09.786Z,20.86
2023-01-25T06:35:36.630Z,20.85
2023-01-25T06:38:02.964Z,20.82
2023-01-25T06:40:29.340Z,20.83
2023-01-25T06:42:55.666Z,20.84
2023-01-25T06:45:22.047Z,20.83
2023-01-25T06:47:48.576Z,20.84
2023-01-25T06:50:14.964Z,20.82
2023-01-25T06:52:41.301Z,20.82
2023-01-25T06:55:08.510Z,20.82
2023-01-25T06:57:34.986Z,20.81
2023-01-25T07:00:01.307Z,20.79
2023-01-25T07:02:27.643Z,20.78
2023-01-25T07:04:53.973Z,20.78
2023-01-25T07:07:20.301Z,20.80
2023-01-25T07:09:46.670Z,20.81
2023-01-25T07:12:12.990Z,20.82
2023-01-25T07:14:39.371Z,20.83
2023-01-25T07:17:05.703Z,20.85
2023-01-25T07:19:32.017Z,20.85
2023-01-25T07:21:58.385Z,20.85
2023-01-25T07:24:27.206Z,20.84
2023-01-25T07:26:53.658Z,20.80
2023-01-25T07:29:19.965Z,20.77
2023-01-25T07:31:46.340Z,20.76
2023-01-25T07:34:13.186Z,20.75
2023-01-25T07:36:39.828Z,20.67
2023-01-25T07:39:06.180Z,20.67
2023-01-25T07:41:32.759Z,20.72
2023-01-25T07:43:59.080Z,20.83
2023-01-25T07:46:25.404Z,20.94
2023-01-25T07:48:52.298Z,21.04
2023-01-25T07:51:29.998Z,21.14
2023-01-25T07:53:56.938Z,21.25
2023-01-25T07:56:24.771Z,21.29
2023-01-25T07:58:54.936Z,21.27
2023-01-25T08:01:21.810Z,21.28
2023-01-25T08:03:48.181Z,21.26
2023-01-25T08:06:14.526Z,21.28
2023-01-25T08:08:41.770Z,21.31
2023-01-25T08:11:09.295Z,21.37
2023-01-25T08:13:35.618Z,21.41
2023-01-25T08:16:01.947Z,21.43
2023-01-25T08:18:28.312Z,21.36
2023-01-25T08:20:57.306Z,21.32
2023-01-25T08:23:27.612Z,21.33
2023-01-25T08:25:53.933Z,21.35
2023-01-25T08:28:20.255Z,21.30
2023-01-25T08:30:56.959Z,21.28
2023-01-25T08:33:23.942Z,21.24
2023-01-25T08:35:56.829Z,21.21
2023-01-25T08:38:23.222Z,21.18
2023-01-25T08:40:49.782Z,21.20
2023-01-25T08:43:16.156Z,21.09
2023-01-25T08:45:42.698Z,21.03
2023-01-25T08:48:09.199Z,21.02
2023-01-25T08:50:35.877Z,21.03
2023-01-25T08:53:02.959Z,20.98
2023-01-25T08:55:29.283Z,21.03
2023-01-25T08:57:56.634Z,21.10
2023-01-25T09:00:23.799Z,21.08
2023-01-25T09:02:50.147Z,21.05
2023-01-25T09:05:16.463Z,21.01
2023-01-25T09:07:42.889Z,21.10
2023-01-25T09:10:09.943Z,21.16
2023-01-25T09:12:36.496Z,21.18
2023-01-25T09:15:03.350Z,21.17
2023-01-25T09:17:29.824Z,21.18
2023-01-25T09:19:56.137Z,21.16
2023-01-25T09:22:22.484Z,21.13
2023-01-25T09:24:52.269Z,21.13
2023-01-25T09:27:18.734Z,21.12
2023-01-25T09:29:59.967Z,21.11
2023-01-25T09:32:27.703Z,21.12
2023-01-25T09:34:54.095Z,21.16
2023-01-25T09:37:20.498Z,21.20
2023-01-25T09:39:46.817Z,21.24
2023-01-25T09:42:29.125Z,21.26
2023-01-25T09:44:55.397Z,21.26
2023-01-25T09:47:27.278Z,21.25
2023-01-25T09:49:56.412Z,21.23
2023-01-25T09:52:41.556Z,21.19
2023-01-25T09:55:14.611Z,21.17
2023-01-25T09:57:41.314Z,21.15
2023-01-25T10:00:17.013Z,21.16
2023-01-25T10:03:02.193Z,21.19
2023-01-25T10:05:29.985Z,21.26
2023-01-25T10:08:03.827Z,21.31
2023-01-25T10:10:32.798Z,21.32
2023-01-25T10:12:59.100Z,21.33
2023-01-25T10:15:28.764Z,21.29
2023-01-25T10:17:59.936Z,21.28
2023-01-25T10:20:28.571Z,21.25
2023-01-25T10:23:15.085Z,21.24
2023-01-25T10:26:00.146Z,21.21
2023-01-25T10:28:32.391Z,21.22
2023-01-25T10:31:06.409Z,21.26
2023-01-25T10:33:35.008Z,21.30
2023-01-25T10:36:02.997Z,21.32
2023-01-25T10:38:36.551Z,21.34
2023-01-25T10:41:04.559Z,21.27
2023-01-25T10:43:30.885Z,21.22
2023-01-25T10:45:57.388Z,21.14
2023-01-25T10:48:24.775Z,21.11
2023-01-25T10:50:52.026Z,21.09
2023-01-25T10:53:21.339Z,21.19
2023-01-25T10:56:06.324Z,21.19
2023-01-25T10:58:33.602Z,21.29
2023-01-25T11:00:59.903Z,21.35
2023-01-25T11:03:26.830Z,21.28
2023-01-25T11:05:53.791Z,21.26
2023-01-25T11:08:23.137Z,21.25
2023-01-25T11:10:50.143Z,21.25
2023-01-25T11:13:16.790Z,21.30
2023-01-25T11:15:53.095Z,21.38
2023-01-25T11:18:23.483Z,21.40
2023-01-25T11:21:05.117Z,21.42
2023-01-25T11:23:32.276Z,21.43
2023-01-25T11:26:30.836Z,21.46
2023-01-25T11:29:12.272Z,21.47
2023-01-25T11:31:41.826Z,21.48
2023-01-25T11:34:08.772Z,21.45
2023-01-25T11:36:38.074Z,21.48
2023-01-25T11:39:04.542Z,21.44
2023-01-25T11:41:43.270Z,21.39
2023-01-25T11:44:09.554Z,21.31
2023-01-25T11:46:54.722Z,21.30
2023-01-25T11:49:26.049Z,21.33
2023-01-25T11:52:07.568Z,21.50
2023-01-25T11:54:52.646Z,21.59
2023-01-25T11:57:29.024Z,21.81
2023-01-25T12:00:27.839Z,22.03
2023-01-25T12:03:13.896Z,22.06
2023-01-25T12:05:50.770Z,22.27
2023-01-25T12:08:25.811Z,22.46
2023-01-25T12:10:58.161Z,22.64
2023-01-25T12:13:31.422Z,22.78
2023-01-25T12:16:10.896Z,22.69
2023-01-25T12:18:37.682Z,22.59
2023-01-25T12:21:13.417Z,22.60
2023-01-25T12:24:00.098Z,22.62
2023-01-25T12:26:29.892Z,22.62
2023-01-25T12:28:58.969Z,22.68
2023-01-25T12:31:27.114Z,22.78
2023-01-25T12:34:03.204Z,22.84
2023-01-25T12:36:34.626Z,22.92
2023-01-25T12:39:02.793Z,23.03
2023-01-25T12:41:29.038Z,23.05
2023-01-25T12:43:57.489Z,23.16
2023-01-25T12:46:25.966Z,23.19
2023-01-25T12:48:53.242Z,23.22
2023-01-25T12:51:20.255Z,23.45
2023-01-25T12:53:49.359Z,23.77
2023-01-25T12:56:21.812Z,23.90
2023-01-25T12:58:50.763Z,23.94
2023-01-25T13:01:29.136Z,23.98
2023-01-25T13:04:00.015Z,24.02
2023-01-25T13:06:31.230Z,24.03
2023-01-25T13:08:59.160Z,24.02
2023-01-25T13:11:38.971Z,24.03
2023-01-25T13:14:20.608Z,24.07
2023-01-25T13:16:50.269Z,24.09
2023-01-25T13:19:19.115Z,24.11
2023-01-25T13:21:46.530Z,24.11
2023-01-25T13:24:16.815Z,24.15
2023-01-25T13:26:47.917Z,24.13
2023-01-25T13:29:42.897Z,24.16
2023-01-25T13:32:36.182Z,24.13
2023-01-25T13:35:02.618Z,23.98
2023-01-25T13:37:29.467Z,23.68
2023-01-25T13:39:56.498Z,23.57
2023-01-25T13:42:26.245Z,23.58
2023-01-25T13:44:59.527Z,23.47
2023-01-25T13:47:26.445Z,23.47
2023-01-25T13:49:52.684Z,23.46
2023-01-25T13:52:19.374Z,23.43
2023-01-25T13:54:46.326Z,23.40
2023-01-25T13:57:14.384Z,23.37
2023-01-25T13:59:40.815Z,23.37
2023-01-25T14:02:13.895Z,23.36
2023-01-25T14:04:40.288Z,23.34
2023-01-25T14:07:10.100Z,23.33
2023-01-25T14:09:36.448Z,23.37
2023-01-25T14:12:02.918Z,23.35
2023-01-25T14:14:29.179Z,23.36
2023-01-25T14:17:10.118Z,23.35
2023-01-25T14:19:40.316Z,23.32
2023-01-25T14:24:36.824Z,23.23
2023-01-25T14:27:03.822Z,23.22
2023-01-25T14:29:33.189Z,23.21
2023-01-25T14:31:59.875Z,23.19
2023-01-25T14:34:26.293Z,23.15
2023-01-25T14:37:05.833Z,23.12
2023-01-25T14:39:32.512Z,23.10
2023-01-25T14:42:01.262Z,23.09
2023-01-25T14:44:28.117Z,23.06
2023-01-25T14:47:22.473Z,23.06
2023-01-25T14:49:48.843Z,23.10
2023-01-25T14:52:16.515Z,23.11
2023-01-25T14:54:47.945Z,23.11
2023-01-25T14:57:33.141Z,23.12
2023-01-25T14:59:59.464Z,23.01
2023-01-25T15:02:25.738Z,23.02
2023-01-25T15:05:04.921Z,23.05
2023-01-25T15:07:47.285Z,23.04
2023-01-25T15:10:25.802Z,23.04
2023-01-25T15:13:04.123Z,23.05
2023-01-25T15:15:34.390Z,23.03
2023-01-25T15:18:01.134Z,23.00
2023-01-25T15:20:37.597Z,22.96
2023-01-25T15:23:09.232Z,22.93
2023-01-25T15:25:35.553Z,22.90
2023-01-25T15:28:01.873Z,22.88
2023-01-25T15:30:28.276Z,22.86
2023-01-25T15:32:54.609Z,22.84
2023-01-25T15:35:21.278Z,22.81
2023-01-25T15:37:49.249Z,22.81
2023-01-25T15:40:17.027Z,22.79
2023-01-25T15:42:43.357Z,22.78
2023-01-25T15:45:09.866Z,22.75
2023-01-25T15:47:36.391Z,22.71
2023-01-25T15:50:03.415Z,22.69
2023-01-25T15:52:29.739Z,22.66
2023-01-25T15:55:01.681Z,22.64
2023-01-25T15:57:31.912Z,22.62
2023-01-25T15:59:58.431Z,22.63
2023-01-25T16:02:26.121Z,22.63
2023-01-25T16:04:53.077Z,22.63
2023-01-25T16:07:22.094Z,22.62
2023-01-25T16:09:49.989Z,22.67
2023-01-25T16:12:16.319Z,22.68
2023-01-25T16:14:42.703Z,22.69
2023-01-25T16:17:15.719Z,22.67
2023-01-25T16:19:42.053Z,22.65
2023-01-25T16:22:08.498Z,22.63
2023-01-25T16:24:39.256Z,22.62
2023-01-25T16:27:05.923Z,22.62
2023-01-25T16:29:32.272Z,22.59
2023-01-25T16:31:58.770Z,22.57
2023-01-25T16:34:25.189Z,22.55
2023-01-25T16:36:51.809Z,22.53
2023-01-25T16:39:22.192Z,22.52
2023-01-25T16:41:48.580Z,22.51
2023-01-25T16:44:14.909Z,22.50
2023-01-25T16:46:41.396Z,22.34
2023-01-25T16:49:10.714Z,22.26
2023-01-25T16:51:37.071Z,22.35
2023-01-25T16:54:03.455Z,22.52
2023-01-25T16:56:30.509Z,22.76
2023-01-25T16:58:57.414Z,22.81
2023-01-25T17:01:24.303Z,22.87
2023-01-25T17:03:50.822Z,22.94
2023-01-25T17:06:27.809Z,23.06
2023-01-25T17:08:58.883Z,23.14
2023-01-25T17:11:25.452Z,23.26
2023-01-25T17:13:52.834Z,23.38
2023-01-25T17:16:19.275Z,23.35
2023-01-25T17:18:45.578Z,23.37
2023-01-25T17:21:12.635Z,23.45
2023-01-25T17:23:38.947Z,23.54
2023-01-25T17:26:05.738Z,23.58
2023-01-25T17:28:32.148Z,23.64
2023-01-25T17:30:58.727Z,23.68
2023-01-25T17:33:25.084Z,23.77
2023-01-25T17:35:52.500Z,23.81
2023-01-25T17:38:20.166Z,23.84
2023-01-25T17:40:46.486Z,23.86
2023-01-25T17:43:12.815Z,23.89
2023-01-25T17:45:39.619Z,23.94
2023-01-25T17:48:06.915Z,23.93
2023-01-25T17:50:33.470Z,23.99
2023-01-25T17:52:59.843Z,23.96
2023-01-25T17:55:26.154Z,23.96
2023-01-25T17:57:52.479Z,23.95
2023-01-25T18:00:18.939Z,23.91
2023-01-25T18:02:45.350Z,23.94
2023-01-25T18:05:11.697Z,23.99
2023-01-25T18:07:38.178Z,23.97
2023-01-25T18:10:04.992Z,23.96
2023-01-25T18:12:31.349Z,23.94
2023-01-25T18:14:57.701Z,23.95
2023-01-25T18:17:24.027Z,23.94
2023-01-25T18:19:50.438Z,23.88
2023-01-25T18:22:17.243Z,23.93
2023-01-25T18:24:44.672Z,23.96
2023-01-25T18:27:20.634Z,23.95
2023-01-25T18:29:55.882Z,23.96
2023-01-25T18:32:22.212Z,23.99
2023-01-25T18:34:48.555Z,23.94
2023-01-25T18:37:18.160Z,23.91
2023-01-25T18:39:45.259Z,23.94
2023-01-25T18:42:11.582Z,23.95
2023-01-25T18:44:37.970Z,23.97
2023-01-25T18:47:04.305Z,23.94
2023-01-25T18:49:30.623Z,23.95
2023-01-25T18:52:11.022Z,23.93
2023-01-25T18:54:38.173Z,23.91
2023-01-25T18:57:04.570Z,23.94
2023-01-25T18:59:31.395Z,23.87
2023-01-25T19:01:57.776Z,23.80
2023-01-25T19:04:24.092Z,23.82
2023-01-25T19:06:56.576Z,23.83
2023-01-25T19:09:24.557Z,23.82
2023-01-25T19:11:51.295Z,23.78
2023-01-25T19:14:17.695Z,23.80
2023-01-25T19:16:44.219Z,23.78
2023-01-25T19:19:10.603Z,23.77
2023-01-25T19:21:36.923Z,23.79
2023-01-25T19:24:03.307Z,23.72
2023-01-25T19:26:29.883Z,23.71
2023-01-25T19:28:56.239Z,23.58
2023-01-25T19:31:26.102Z,23.58
2023-01-25T19:33:56.073Z,23.56
2023-01-25T19:36:22.389Z,23.68
2023-01-25T19:38:48.754Z,23.68
2023-01-25T19:41:25.027Z,23.64
2023-01-25T19:43:54.807Z,23.54
2023-01-25T19:46:21.765Z,23.56
2023-01-25T19:48:50.064Z,23.55
2023-01-25T19:51:16.479Z,23.56
2023-01-25T19:53:47.383Z,23.53
2023-01-25T19:56:16.097Z,23.52
2023-01-25T19:58:42.986Z,23.51
2023-01-25T20:01:09.958Z,23.50
2023-01-25T20:03:36.508Z,23.50
2023-01-25T20:06:03.924Z,23.44
2023-01-25T20:08:30.590Z,23.41
2023-01-25T20:10:57.527Z,23.39
2023-01-25T20:13:23.858Z,23.38
2023-01-25T20:15:50.245Z,23.33
2023-01-25T20:18:16.590Z,23.39
2023-01-25T20:20:42.934Z,23.37
2023-01-25T20:23:09.247Z,23.34
2023-01-25T20:25:35.568Z,23.30
2023-01-25T20:28:01.884Z,23.29
2023-01-25T20:30:28.214Z,23.28
2023-01-25T20:32:54.534Z,23.17
2023-01-25T20:35:20.862Z,23.20
2023-01-25T20:37:49.325Z,23.23
2023-01-25T20:40:15.862Z,23.23
2023-01-25T20:42:42.171Z,23.20
2023-01-25T20:45:11.322Z,23.15
2023-01-25T20:47:37.801Z,23.17
2023-01-25T20:50:04.442Z,23.14
2023-01-25T20:52:30.758Z,23.14
2023-01-25T20:54:57.200Z,23.12
2023-01-25T20:57:23.540Z,23.11
2023-01-25T20:59:49.848Z,23.09
2023-01-25T21:02:16.221Z,23.06
2023-01-25T21:04:42.565Z,23.03
2023-01-25T21:07:09.180Z,22.97
2023-01-25T21:09:35.540Z,23.03
2023-01-25T21:12:01.858Z,22.97
2023-01-25T21:14:28.163Z,22.97
2023-01-25T21:16:54.474Z,23.01
2023-01-25T21:19:20.809Z,23.11
2023-01-25T21:21:47.136Z,23.20
2023-01-25T21:24:13.496Z,23.47
2023-01-25T21:26:39.927Z,23.65
2023-01-25T21:29:06.281Z,23.74
2023-01-25T21:31:33.441Z,23.69
2023-01-25T21:33:59.794Z,23.69
2023-01-25T21:36:26.119Z,23.79
2023-01-25T21:38:53.317Z,23.77
2023-01-25T21:41:20.557Z,23.85
2023-01-25T21:44:06.258Z,23.89
2023-01-25T21:46:33.161Z,23.94
2023-01-25T21:49:38.204Z,24.00
2023-01-25T21:52:04.595Z,24.03
2023-01-25T21:54:31.629Z,24.09
2023-01-25T21:56:58.384Z,24.12
2023-01-25T21:59:24.782Z,24.21
2023-01-25T22:01:51.494Z,24.20
2023-01-25T22:04:17.982Z,24.08
2023-01-25T22:06:44.307Z,24.01
2023-01-25T22:09:10.839Z,24.10
2023-01-25T22:11:37.148Z,24.19
2023-01-25T22:14:03.465Z,24.22
2023-01-25T22:16:30.276Z,24.26
2023-01-25T22:18:56.665Z,24.23
2023-01-25T22:21:23.700Z,24.20
2023-01-25T22:23:50.127Z,24.18
2023-01-25T22:26:17.170Z,24.17
2023-01-25T22:28:46.348Z,24.14
2023-01-25T22:31:13.348Z,24.11
2023-01-25T22:33:39.841Z,24.10
2023-01-25T22:36:06.618Z,24.12
2023-01-25T22:38:32.931Z,24.09
2023-01-25T22:41:05.301Z,24.09
2023-01-25T22:43:31.799Z,24.08
2023-01-25T22:45:58.156Z,24.05
2023-01-25T22:48:24.527Z,24.01
2023-01-25T22:50:50.850Z,24.03
2023-01-25T22:53:17.163Z,24.01
2023-01-25T22:55:43.576Z,24.01
2023-01-25T22:58:09.972Z,24.00
2023-01-25T23:00:39.019Z,24.00
2023-01-25T23:03:05.363Z,23.98
2023-01-25T23:05:32.015Z,23.92
2023-01-25T23:07:59.711Z,24.17
2023-01-25T23:10:26.089Z,24.40
2023-01-25T23:12:53.366Z,24.50
2023-01-25T23:15:19.914Z,24.51
2023-01-25T23:18:04.804Z,24.54
2023-01-25T23:20:31.121Z,24.56
2023-01-25T23:22:57.454Z,24.58
2023-01-25T23:25:23.844Z,24.60
2023-01-25T23:27:50.158Z,24.60
2023-01-25T23:30:16.569Z,24.61
2023-01-25T23:32:49.245Z,24.60
2023-01-25T23:35:18.809Z,24.61
2023-01-25T23:37:45.961Z,24.59
2023-01-25T23:40:13.049Z,24.56
2023-01-25T23:42:39.483Z,24.56
2023-01-25T23:45:06.690Z,24.55
2023-01-25T23:47:33.018Z,24.54
2023-01-25T23:49:59.371Z,24.53
2023-01-25T23:52:25.699Z,24.52
2023-01-25T23:54:52.074Z,24.52
2023-01-25T23:57:18.413Z,24.53
2023-01-25T23:59:44.742Z,24.47
